createdAt,value
2018-07-31T00:00:29.516Z,59.41
2018-07-31T00:01:29.504Z,59.51
2018-07-31T00:02:29.494Z,59.51
2018-07-31T00:03:29.537Z,59.21
2018-07-31T00:04:29.473Z,59.21
2018-07-31T00:05:29.460Z,59.01
2018-07-31T00:06:29.450Z,59.11
2018-07-31T00:07:29.440Z,59.21
2018-07-31T00:08:29.425Z,59.11
2018-07-31T00:09:29.428Z,59.41
2018-07-31T00:10:29.435Z,59.11
2018-07-31T00:11:29.395Z,59.11
2018-07-31T00:12:29.385Z,59.11
2018-07-31T00:13:29.395Z,59.11
2018-07-31T00:14:29.367Z,58.94
2018-07-31T00:15:29.352Z,59.74
2018-07-31T00:16:29.342Z,59.14
2018-07-31T00:17:29.331Z,59.34
2018-07-31T00:18:29.320Z,59.11
2018-07-31T00:19:29.801Z,58.94
2018-07-31T00:20:29.299Z,59.04
2018-07-31T00:21:29.289Z,59.11
2018-07-31T00:22:29.274Z,59.04
2018-07-31T00:23:29.264Z,59.21
2018-07-31T00:24:29.270Z,59.34
2018-07-31T00:25:29.242Z,59.14
2018-07-31T00:26:29.232Z,58.94
2018-07-31T00:27:29.223Z,58.94
2018-07-31T00:28:29.218Z,59.31
2018-07-31T00:29:29.217Z,59.23
2018-07-31T00:30:29.195Z,59.14
2018-07-31T00:31:29.184Z,59.83
2018-07-31T00:32:29.169Z,59.04
2018-07-31T00:33:29.158Z,59.11
2018-07-31T00:34:29.188Z,59.14
2018-07-31T00:35:29.135Z,58.94
2018-07-31T00:36:29.129Z,59.04
2018-07-31T00:37:29.115Z,59.23
2018-07-31T00:38:29.106Z,59.14
2018-07-31T00:39:29.094Z,59.34
2018-07-31T00:40:29.096Z,59.23
2018-07-31T00:41:29.070Z,59.04
2018-07-31T00:42:29.060Z,59.14
2018-07-31T00:43:29.056Z,59.74
2018-07-31T00:44:29.037Z,59.94
2018-07-31T00:45:29.043Z,59.83
2018-07-31T00:46:29.016Z,60.03
2018-07-31T00:47:29.006Z,60.33
2018-07-31T00:48:28.995Z,59.94
2018-07-31T00:49:28.985Z,60.03
2018-07-31T00:50:28.989Z,60.24
2018-07-31T00:51:28.964Z,60.43
2018-07-31T00:52:28.954Z,60.73
2018-07-31T00:53:28.955Z,60.26
2018-07-31T00:54:28.932Z,59.96
2018-07-31T00:55:28.918Z,60.16
2018-07-31T00:56:28.924Z,60.86
2018-07-31T00:57:28.898Z,61.36
2018-07-31T00:58:28.899Z,60.96
2018-07-31T00:59:28.890Z,60.86
2018-07-31T01:00:28.869Z,60.79
2018-07-31T01:01:28.852Z,60.99
2018-07-31T01:02:28.844Z,61.19
2018-07-31T01:03:28.834Z,61.06
2018-07-31T01:04:28.838Z,61.46
2018-07-31T01:05:28.812Z,61.36
2018-07-31T01:06:28.800Z,61.09
2018-07-31T01:07:28.789Z,61.09
2018-07-31T01:08:28.778Z,60.59
2018-07-31T01:09:28.770Z,60.99
2018-07-31T01:10:28.771Z,61.39
2018-07-31T01:11:28.748Z,61.19
2018-07-31T01:12:28.735Z,61.29
2018-07-31T01:13:28.740Z,60.89
2018-07-31T01:14:28.735Z,60.99
2018-07-31T01:15:28.702Z,60.69
2018-07-31T01:16:28.693Z,60.79
2018-07-31T01:17:28.684Z,61.39
2018-07-31T01:18:28.672Z,60.89
2018-07-31T01:19:28.662Z,61.22
2018-07-31T01:20:28.665Z,61.22
2018-07-31T01:21:28.641Z,60.72
2018-07-31T01:22:28.627Z,60.72
2018-07-31T01:23:28.619Z,60.82
2018-07-31T01:24:28.605Z,60.72
2018-07-31T01:25:28.609Z,61.11
2018-07-31T01:26:28.586Z,60.62
2018-07-31T01:27:28.572Z,60.92
2018-07-31T01:28:28.564Z,61.15
2018-07-31T01:29:28.555Z,61.15
2018-07-31T01:30:28.564Z,61.05
2018-07-31T01:31:28.528Z,61.05
2018-07-31T01:32:28.521Z,60.45
2018-07-31T01:33:28.507Z,60.55
2018-07-31T01:34:28.500Z,60.75
2018-07-31T01:35:28.488Z,61.05
2018-07-31T01:36:28.490Z,60.95
2018-07-31T01:37:28.466Z,60.85
2018-07-31T01:38:28.454Z,60.65
2018-07-31T01:39:28.445Z,60.55
2018-07-31T01:40:28.457Z,60.85
2018-07-31T01:41:28.423Z,60.68
2018-07-31T01:42:28.412Z,60.65
2018-07-31T01:43:28.402Z,60.95
2018-07-31T01:44:28.391Z,60.85
2018-07-31T01:45:28.378Z,60.97
2018-07-31T01:46:28.408Z,61.25
2018-07-31T01:47:28.357Z,61.44
2018-07-31T01:48:28.348Z,61.18
2018-07-31T01:49:28.338Z,61.87
2018-07-31T01:50:28.327Z,61.74
2018-07-31T01:51:28.319Z,61.38
2018-07-31T01:52:28.320Z,61.74
2018-07-31T01:53:28.293Z,61.68
2018-07-31T01:54:28.281Z,61.47
2018-07-31T01:55:28.272Z,62.07
2018-07-31T01:56:28.264Z,61.98
2018-07-31T01:57:28.273Z,61.38
2018-07-31T01:58:28.240Z,61.87
2018-07-31T01:59:28.233Z,62.07
2018-07-31T02:00:28.217Z,61.85
2018-07-31T02:01:28.209Z,61.57
2018-07-31T02:02:28.197Z,61.27
2018-07-31T02:03:28.202Z,62.18
2018-07-31T02:04:28.173Z,61.68
2018-07-31T02:05:28.161Z,61.87
2018-07-31T02:06:28.154Z,61.38
2018-07-31T02:07:28.141Z,61.87
2018-07-31T02:08:28.146Z,62.27
2018-07-31T02:09:28.120Z,61.98
2018-07-31T02:10:28.108Z,62.27
2018-07-31T02:11:28.097Z,62.60
2018-07-31T02:12:28.089Z,63.00
2018-07-31T02:13:28.090Z,62.90
2018-07-31T02:14:28.073Z,62.97
2018-07-31T02:15:28.054Z,63.17
2018-07-31T02:16:28.044Z,62.70
2018-07-31T02:17:28.034Z,62.70
2018-07-31T02:18:28.037Z,62.77
2018-07-31T02:19:28.015Z,62.77
2018-07-31T02:20:28.004Z,62.57
2018-07-31T02:21:27.993Z,62.81
2018-07-31T02:22:27.982Z,61.47
2018-07-31T02:23:27.982Z,62.40
2018-07-31T02:24:27.970Z,62.27
2018-07-31T02:25:27.959Z,62.37
2018-07-31T02:26:27.937Z,62.07
2018-07-31T02:27:27.929Z,61.98
2018-07-31T02:28:27.953Z,62.37
2018-07-31T02:29:27.908Z,62.48
2018-07-31T02:30:27.907Z,62.18
2018-07-31T02:31:27.884Z,62.18
2018-07-31T02:32:27.873Z,62.27
2018-07-31T02:33:27.881Z,62.30
2018-07-31T02:34:27.851Z,62.20
2018-07-31T02:35:27.874Z,62.20
2018-07-31T02:36:27.827Z,62.40
2018-07-31T02:37:27.820Z,62.60
2018-07-31T02:38:27.806Z,62.50
2018-07-31T02:39:27.794Z,62.70
2018-07-31T02:40:27.787Z,62.60
2018-07-31T02:41:27.790Z,62.50
2018-07-31T02:42:27.766Z,62.50
2018-07-31T02:43:27.755Z,62.81
2018-07-31T02:44:27.744Z,63.20
2018-07-31T02:45:27.730Z,62.81
2018-07-31T02:46:27.735Z,63.00
2018-07-31T02:47:27.712Z,63.10
2018-07-31T02:48:27.701Z,63.20
2018-07-31T02:49:27.688Z,62.90
2018-07-31T02:50:27.680Z,63.30
2018-07-31T02:51:27.681Z,63.00
2018-07-31T02:52:27.657Z,63.20
2018-07-31T02:53:27.646Z,63.20
2018-07-31T02:54:27.639Z,63.10
2018-07-31T02:55:27.631Z,63.33
2018-07-31T02:56:27.627Z,63.40
2018-07-31T02:57:27.615Z,63.53
2018-07-31T02:58:27.594Z,63.63
2018-07-31T02:59:27.581Z,63.73
2018-07-31T03:00:27.570Z,63.13
2018-07-31T03:01:27.577Z,63.43
2018-07-31T03:02:27.572Z,63.63
2018-07-31T03:03:27.536Z,63.53
2018-07-31T03:04:27.531Z,63.73
2018-07-31T03:05:27.518Z,63.53
2018-07-31T03:06:27.505Z,63.53
2018-07-31T03:07:27.500Z,63.43
2018-07-31T03:08:27.500Z,63.13
2018-07-31T03:09:27.474Z,63.63
2018-07-31T03:10:27.463Z,63.73
2018-07-31T03:11:27.451Z,63.53
2018-07-31T03:12:27.440Z,63.23
2018-07-31T03:13:27.443Z,63.33
2018-07-31T03:14:27.419Z,63.43
2018-07-31T03:15:27.407Z,63.76
2018-07-31T03:16:27.397Z,63.93
2018-07-31T03:17:27.385Z,63.23
2018-07-31T03:18:27.391Z,62.96
2018-07-31T03:19:27.367Z,63.26
2018-07-31T03:20:27.356Z,62.83
2018-07-31T03:21:27.346Z,63.26
2018-07-31T03:22:27.335Z,62.53
2018-07-31T03:23:27.337Z,63.23
2018-07-31T03:24:27.311Z,63.03
2018-07-31T03:25:27.299Z,63.13
2018-07-31T03:26:27.292Z,63.03
2018-07-31T03:27:27.278Z,62.83
2018-07-31T03:28:27.286Z,62.83
2018-07-31T03:29:27.258Z,62.83
2018-07-31T03:30:27.250Z,62.73
2018-07-31T03:31:27.235Z,62.63
2018-07-31T03:32:27.226Z,62.73
2018-07-31T03:33:27.216Z,62.93
2018-07-31T03:34:27.220Z,62.73
2018-07-31T03:35:27.195Z,62.83
2018-07-31T03:36:27.184Z,62.43
2018-07-31T03:37:27.172Z,62.34
2018-07-31T03:38:27.164Z,62.43
2018-07-31T03:39:27.163Z,62.23
2018-07-31T03:40:27.140Z,62.23
2018-07-31T03:41:27.166Z,62.53
2018-07-31T03:42:27.120Z,62.66
2018-07-31T03:43:27.108Z,63.17
2018-07-31T03:44:27.097Z,62.43
2018-07-31T03:45:27.084Z,62.63
2018-07-31T03:46:27.073Z,62.53
2018-07-31T03:47:27.084Z,62.53
2018-07-31T03:48:27.053Z,62.76
2018-07-31T03:49:27.041Z,62.46
2018-07-31T03:50:27.033Z,62.76
2018-07-31T03:51:27.022Z,63.17
2018-07-31T03:52:27.011Z,63.19
2018-07-31T03:53:27.021Z,63.26
2018-07-31T03:54:26.989Z,63.26
2018-07-31T03:55:27.022Z,62.86
2018-07-31T03:56:26.995Z,62.86
2018-07-31T03:57:26.956Z,62.76
2018-07-31T03:58:26.949Z,62.96
2018-07-31T03:59:26.948Z,63.17
2018-07-31T04:00:26.926Z,62.96
2018-07-31T04:01:26.915Z,63.46
2018-07-31T04:02:26.905Z,63.17
2018-07-31T04:03:26.893Z,62.86
2018-07-31T04:04:26.906Z,62.86
2018-07-31T04:05:26.891Z,62.66
2018-07-31T04:06:26.860Z,62.46
2018-07-31T04:07:26.847Z,62.66
2018-07-31T04:08:26.836Z,62.86
2018-07-31T04:09:26.828Z,63.17
2018-07-31T04:10:26.862Z,63.26
2018-07-31T04:11:26.805Z,63.26
2018-07-31T04:12:26.797Z,63.26
2018-07-31T04:13:26.786Z,63.36
2018-07-31T04:14:26.773Z,63.29
2018-07-31T04:15:26.765Z,63.39
2018-07-31T04:16:26.770Z,63.69
2018-07-31T04:17:26.741Z,63.59
2018-07-31T04:18:26.732Z,63.89
2018-07-31T04:19:26.723Z,63.29
2018-07-31T04:20:26.709Z,63.39
2018-07-31T04:21:26.700Z,63.79
2018-07-31T04:22:26.701Z,63.79
2018-07-31T04:23:26.679Z,63.69
2018-07-31T04:24:26.666Z,63.89
2018-07-31T04:25:26.672Z,64.32
2018-07-31T04:26:26.644Z,64.22
2018-07-31T04:27:26.634Z,64.52
2018-07-31T04:28:26.640Z,64.62
2018-07-31T04:29:26.614Z,64.83
2018-07-31T04:30:26.600Z,64.69
2018-07-31T04:31:26.609Z,64.49
2018-07-31T04:32:26.581Z,64.62
2018-07-31T04:33:26.582Z,64.69
2018-07-31T04:34:26.561Z,64.83
2018-07-31T04:35:26.551Z,64.89
2018-07-31T04:36:26.546Z,65.02
2018-07-31T04:37:26.525Z,64.79
2018-07-31T04:38:26.536Z,64.89
2018-07-31T04:39:26.505Z,64.69
2018-07-31T04:40:26.492Z,64.59
2018-07-31T04:41:26.483Z,64.89
2018-07-31T04:42:26.531Z,64.49
2018-07-31T04:43:26.461Z,64.29
2018-07-31T04:44:26.464Z,64.29
2018-07-31T04:45:26.453Z,64.56
2018-07-31T04:46:26.430Z,64.46
2018-07-31T04:47:26.416Z,64.76
2018-07-31T04:48:26.409Z,64.86
2018-07-31T04:49:26.416Z,64.36
2018-07-31T04:50:26.477Z,64.36
2018-07-31T04:51:26.391Z,64.33
2018-07-31T04:52:26.367Z,64.26
2018-07-31T04:53:26.352Z,63.96
2018-07-31T04:54:26.343Z,64.06
2018-07-31T04:55:26.346Z,64.36
2018-07-31T04:56:26.323Z,64.16
2018-07-31T04:57:26.309Z,65.06
2018-07-31T04:58:26.300Z,64.16
2018-07-31T04:59:26.301Z,64.26
2018-07-31T05:00:26.281Z,64.26
2018-07-31T05:01:26.267Z,65.16
2018-07-31T05:02:26.256Z,64.66
2018-07-31T05:03:26.243Z,65.69
2018-07-31T05:04:26.318Z,65.59
2018-07-31T05:05:26.225Z,65.79
2018-07-31T05:06:26.212Z,66.09
2018-07-31T05:07:26.206Z,66.09
2018-07-31T05:08:26.190Z,65.59
2018-07-31T05:09:26.181Z,66.09
2018-07-31T05:10:26.182Z,65.89
2018-07-31T05:11:26.159Z,65.59
2018-07-31T05:12:26.151Z,66.39
2018-07-31T05:13:26.207Z,65.79
2018-07-31T05:14:26.158Z,66.89
2018-07-31T05:15:26.114Z,66.19
2018-07-31T05:16:26.107Z,66.29
2018-07-31T05:17:26.099Z,66.39
2018-07-31T05:18:26.157Z,66.49
2018-07-31T05:19:26.070Z,66.56
2018-07-31T05:20:26.070Z,66.46
2018-07-31T05:21:26.054Z,66.76
2018-07-31T05:22:26.039Z,66.43
2018-07-31T05:23:26.035Z,65.63
2018-07-31T05:24:26.018Z,65.53
2018-07-31T05:25:26.049Z,64.93
2018-07-31T05:26:26.000Z,64.63
2018-07-31T05:27:25.990Z,65.60
2018-07-31T05:28:25.976Z,65.20
2018-07-31T05:29:25.967Z,63.80
2018-07-31T05:30:25.956Z,63.17
2018-07-31T05:31:25.978Z,63.27
2018-07-31T05:32:25.967Z,63.24
2018-07-31T05:33:25.922Z,63.07
2018-07-31T05:34:25.914Z,62.24
2018-07-31T05:35:25.902Z,62.21
2018-07-31T05:36:25.892Z,60.86
2018-07-31T05:37:25.888Z,59.11
2018-07-31T05:38:25.868Z,58.26
2018-07-31T05:39:25.861Z,56.09
2018-07-31T05:40:25.845Z,54.22
2018-07-31T05:41:25.853Z,52.39
2018-07-31T05:42:25.827Z,51.42
2018-07-31T05:43:25.814Z,51.07
2018-07-31T05:44:25.808Z,48.63
2018-07-31T05:45:25.795Z,47.92
2018-07-31T05:46:25.797Z,47.01
2018-07-31T05:47:25.770Z,47.16
2018-07-31T05:48:25.762Z,45.37
2018-07-31T05:49:25.752Z,44.88
2018-07-31T05:50:25.741Z,45.39
2018-07-31T05:51:25.745Z,46.32
2018-07-31T05:52:25.717Z,47.23
2018-07-31T05:53:25.704Z,48.71
2018-07-31T05:54:25.696Z,51.03
2018-07-31T05:55:25.687Z,50.36
2018-07-31T05:56:25.677Z,51.05
2018-07-31T05:57:25.730Z,51.35
2018-07-31T05:58:25.650Z,50.63
2018-07-31T05:59:25.640Z,50.09
2018-07-31T06:00:25.635Z,48.46
2018-07-31T06:01:25.641Z,47.82
2018-07-31T06:02:25.635Z,47.72
2018-07-31T06:03:25.635Z,48.12
2018-07-31T06:04:25.593Z,47.97
2018-07-31T06:05:25.578Z,47.28
2018-07-31T06:06:25.565Z,47.04
2018-07-31T06:07:25.577Z,45.94
2018-07-31T06:08:25.544Z,45.52
2018-07-31T06:09:25.536Z,44.62
2018-07-31T06:10:25.525Z,44.62
2018-07-31T06:11:25.542Z,44.20
2018-07-31T06:12:25.499Z,43.83
2018-07-31T06:13:25.527Z,45.05
2018-07-31T06:14:25.478Z,45.49
2018-07-31T06:15:25.469Z,45.37
2018-07-31T06:16:25.460Z,45.35
2018-07-31T06:17:25.448Z,44.66
2018-07-31T06:18:25.438Z,45.03
2018-07-31T06:19:25.443Z,44.22
2018-07-31T06:20:25.414Z,43.93
2018-07-31T06:21:25.406Z,44.15
2018-07-31T06:22:25.393Z,45.45
2018-07-31T06:23:25.382Z,45.94
2018-07-31T06:24:25.387Z,46.45
2018-07-31T06:25:25.363Z,45.39
2018-07-31T06:26:25.358Z,46.69
2018-07-31T06:27:25.340Z,47.23
2018-07-31T06:28:25.331Z,48.71
2018-07-31T06:29:25.357Z,50.43
2018-07-31T06:30:25.312Z,51.18
2018-07-31T06:31:25.303Z,52.94
2018-07-31T06:32:25.289Z,54.38
2018-07-31T06:33:25.280Z,54.85
2018-07-31T06:34:25.269Z,55.64
2018-07-31T06:35:25.275Z,54.02
2018-07-31T06:36:25.247Z,53.50
2018-07-31T06:37:25.240Z,54.30
2018-07-31T06:38:25.228Z,53.60
2018-07-31T06:39:25.214Z,53.11
2018-07-31T06:40:25.263Z,53.11
2018-07-31T06:41:25.207Z,53.31
2018-07-31T06:42:25.185Z,53.50
2018-07-31T06:43:25.215Z,53.90
2018-07-31T06:44:25.209Z,54.05
2018-07-31T06:45:25.152Z,54.47
2018-07-31T06:46:25.150Z,55.96
2018-07-31T06:47:25.131Z,56.83
2018-07-31T06:48:25.144Z,54.49
2018-07-31T06:49:25.112Z,53.01
2018-07-31T06:50:25.098Z,52.26
2018-07-31T06:51:25.083Z,51.97
2018-07-31T06:52:25.073Z,52.83
2018-07-31T06:53:25.065Z,50.63
2018-07-31T06:54:25.066Z,51.37
2018-07-31T06:55:25.045Z,50.38
2018-07-31T06:56:25.048Z,50.07
2018-07-31T06:57:25.024Z,50.21
2018-07-31T06:58:25.016Z,48.41
2018-07-31T06:59:25.000Z,47.80
2018-07-31T07:00:24.991Z,48.44
2018-07-31T07:01:24.992Z,47.02
2018-07-31T07:02:24.981Z,45.52
2018-07-31T07:03:24.958Z,45.20
2018-07-31T07:04:24.973Z,45.35
2018-07-31T07:05:24.942Z,46.87
2018-07-31T07:06:24.926Z,47.48
2018-07-31T07:07:24.920Z,47.28
2018-07-31T07:08:24.926Z,46.62
2018-07-31T07:09:24.896Z,45.86
2018-07-31T07:10:24.886Z,45.52
2018-07-31T07:11:24.878Z,47.24
2018-07-31T07:12:24.862Z,46.94
2018-07-31T07:13:24.856Z,44.20
2018-07-31T07:14:24.858Z,43.27
2018-07-31T07:15:24.872Z,43.79
2018-07-31T07:16:24.822Z,43.98
2018-07-31T07:17:24.812Z,42.25
2018-07-31T07:18:24.803Z,41.42
2018-07-31T07:19:24.810Z,41.27
2018-07-31T07:20:24.779Z,39.86
2018-07-31T07:21:24.768Z,40.21
2018-07-31T07:22:24.758Z,40.90
2018-07-31T07:23:24.749Z,41.50
2018-07-31T07:24:24.762Z,41.31
2018-07-31T07:25:24.729Z,42.52
2018-07-31T07:26:24.716Z,43.37
2018-07-31T07:27:24.708Z,44.49
2018-07-31T07:28:24.698Z,45.94
2018-07-31T07:29:24.686Z,47.97
2018-07-31T07:30:24.693Z,48.07
2018-07-31T07:31:24.668Z,47.53
2018-07-31T07:32:24.653Z,47.73
2018-07-31T07:33:24.645Z,46.82
2018-07-31T07:34:24.646Z,47.24
2018-07-31T07:35:24.622Z,46.92
2018-07-31T07:36:24.652Z,45.50
2018-07-31T07:37:24.602Z,45.52
2018-07-31T07:38:24.593Z,44.89
2018-07-31T07:39:24.579Z,44.06
2018-07-31T07:40:24.569Z,43.23
2018-07-31T07:41:24.558Z,41.11
2018-07-31T07:42:24.567Z,41.60
2018-07-31T07:43:24.538Z,43.43
2018-07-31T07:44:24.530Z,44.82
2018-07-31T07:45:24.520Z,44.77
2018-07-31T07:46:24.521Z,43.88
2018-07-31T07:47:24.505Z,43.80
2018-07-31T07:48:24.542Z,41.68
2018-07-31T07:49:24.532Z,40.78
2018-07-31T07:50:24.468Z,39.96
2018-07-31T07:51:24.479Z,39.45
2018-07-31T07:52:24.444Z,39.65
2018-07-31T07:53:24.436Z,38.75
2018-07-31T07:54:24.529Z,38.84
2018-07-31T07:55:24.427Z,38.75
2018-07-31T07:56:24.401Z,39.45
2018-07-31T07:57:24.394Z,39.55
2018-07-31T07:58:24.381Z,39.84
2018-07-31T07:59:24.374Z,39.55
2018-07-31T08:00:24.377Z,39.26
2018-07-31T08:01:24.353Z,40.16
2018-07-31T08:02:24.340Z,39.39
2018-07-31T08:03:24.346Z,39.88
2018-07-31T08:04:24.323Z,40.17
2018-07-31T08:05:24.309Z,40.88
2018-07-31T08:06:24.303Z,39.88
2018-07-31T08:07:24.310Z,39.49
2018-07-31T08:08:24.282Z,39.90
2018-07-31T08:09:24.271Z,40.58
2018-07-31T08:10:24.261Z,40.76
2018-07-31T08:11:24.251Z,40.84
2018-07-31T08:12:24.260Z,40.45
2018-07-31T08:13:24.231Z,39.76
2018-07-31T08:14:24.220Z,40.47
2018-07-31T08:15:24.209Z,41.05
2018-07-31T08:16:24.201Z,40.45
2018-07-31T08:17:24.191Z,39.88
2018-07-31T08:18:24.195Z,40.80
2018-07-31T08:19:24.170Z,41.27
2018-07-31T08:20:24.192Z,41.25
2018-07-31T08:21:24.151Z,41.44
2018-07-31T08:22:24.137Z,40.47
2018-07-31T08:23:24.177Z,41.56
2018-07-31T08:24:24.125Z,40.97
2018-07-31T08:25:24.108Z,41.46
2018-07-31T08:26:24.099Z,41.36
2018-07-31T08:27:24.087Z,41.35
2018-07-31T08:28:24.079Z,41.72
2018-07-31T08:29:24.080Z,40.74
2018-07-31T08:30:24.069Z,41.02
2018-07-31T08:31:24.049Z,40.62
2018-07-31T08:32:24.038Z,40.01
2018-07-31T08:33:24.054Z,40.21
2018-07-31T08:34:24.097Z,39.23
2018-07-31T08:35:24.009Z,40.19
2018-07-31T08:36:23.997Z,39.23
2018-07-31T08:37:23.986Z,40.94
2018-07-31T08:38:23.975Z,41.56
2018-07-31T08:39:23.971Z,41.36
2018-07-31T08:40:23.997Z,41.56
2018-07-31T08:41:24.003Z,42.76
2018-07-31T08:42:23.938Z,42.13
2018-07-31T08:43:23.926Z,41.44
2018-07-31T08:44:23.916Z,40.94
2018-07-31T08:45:23.906Z,40.92
2018-07-31T08:46:23.911Z,41.41
2018-07-31T08:47:23.890Z,40.99
2018-07-31T08:48:23.876Z,39.22
2018-07-31T08:49:23.866Z,40.00
2018-07-31T08:50:23.869Z,39.59
2018-07-31T08:51:23.847Z,41.35
2018-07-31T08:52:23.854Z,39.39
2018-07-31T08:53:23.829Z,40.41
2018-07-31T08:54:23.819Z,39.82
2018-07-31T08:55:23.808Z,39.80
2018-07-31T08:56:23.818Z,40.19
2018-07-31T08:57:23.787Z,38.04
2018-07-31T08:58:23.780Z,39.61
2018-07-31T08:59:23.771Z,39.61
2018-07-31T09:00:23.759Z,39.51
2018-07-31T09:01:23.754Z,39.53
2018-07-31T09:02:23.756Z,39.61
2018-07-31T09:03:23.729Z,39.98
2018-07-31T09:04:23.723Z,38.81
2018-07-31T09:05:23.715Z,38.32
2018-07-31T09:06:23.703Z,40.04
2018-07-31T09:07:23.693Z,41.39
2018-07-31T09:08:23.798Z,43.04
2018-07-31T09:09:23.673Z,43.12
2018-07-31T09:10:23.680Z,43.77
2018-07-31T09:11:23.667Z,43.46
2018-07-31T09:12:23.645Z,41.76
2018-07-31T09:13:23.635Z,41.25
2018-07-31T09:14:23.623Z,41.62
2018-07-31T09:15:23.617Z,40.53
2018-07-31T09:16:23.616Z,40.48
2018-07-31T09:17:23.635Z,39.02
2018-07-31T09:18:23.585Z,39.72
2018-07-31T09:19:23.576Z,38.98
2018-07-31T09:20:23.564Z,39.94
2018-07-31T09:21:23.595Z,39.84
2018-07-31T09:22:23.585Z,39.62
2018-07-31T09:23:23.538Z,41.21
2018-07-31T09:24:23.535Z,40.04
2018-07-31T09:25:23.523Z,39.94
2018-07-31T09:26:23.509Z,39.55
2018-07-31T09:27:23.515Z,40.11
2018-07-31T09:28:23.490Z,40.29
2018-07-31T09:29:23.478Z,39.00
2018-07-31T09:30:23.515Z,38.59
2018-07-31T09:31:23.459Z,37.70
2018-07-31T09:32:23.472Z,37.29
2018-07-31T09:33:23.446Z,36.90
2018-07-31T09:34:23.434Z,37.21
2018-07-31T09:35:23.422Z,37.31
2018-07-31T09:36:23.428Z,36.61
2018-07-31T09:37:23.408Z,36.41
2018-07-31T09:38:23.410Z,36.53
2018-07-31T09:39:23.386Z,36.72
2018-07-31T09:40:23.377Z,37.21
2018-07-31T09:41:23.364Z,37.02
2018-07-31T09:42:23.354Z,36.82
2018-07-31T09:43:23.359Z,36.53
2018-07-31T09:44:23.338Z,37.10
2018-07-31T09:45:23.328Z,36.10
2018-07-31T09:46:23.319Z,35.81
2018-07-31T09:47:23.310Z,35.80
2018-07-31T09:48:23.311Z,34.70
2018-07-31T09:49:23.301Z,35.50
2018-07-31T09:50:23.278Z,34.70
2018-07-31T09:51:23.275Z,35.10
2018-07-31T09:52:23.264Z,34.88
2018-07-31T09:53:23.267Z,35.78
2018-07-31T09:54:23.246Z,34.80
2018-07-31T09:55:23.239Z,35.19
2018-07-31T09:56:23.227Z,34.84
2018-07-31T09:57:23.217Z,35.70
2018-07-31T09:58:23.224Z,35.60
2018-07-31T09:59:23.215Z,35.34
2018-07-31T10:00:23.191Z,36.22
2018-07-31T10:01:23.183Z,35.33
2018-07-31T10:02:23.172Z,35.71
2018-07-31T10:03:23.165Z,35.81
2018-07-31T10:04:23.180Z,35.52
2018-07-31T10:05:23.181Z,35.60
2018-07-31T10:06:23.142Z,35.10
2018-07-31T10:07:23.126Z,34.80
2018-07-31T10:08:23.116Z,36.15
2018-07-31T10:09:23.111Z,34.90
2018-07-31T10:10:23.139Z,35.10
2018-07-31T10:11:23.092Z,36.38
2018-07-31T10:12:23.080Z,36.08
2018-07-31T10:13:23.073Z,36.69
2018-07-31T10:14:23.063Z,36.98
2018-07-31T10:15:23.054Z,36.98
2018-07-31T10:16:23.057Z,36.88
2018-07-31T10:17:23.032Z,36.49
2018-07-31T10:18:23.026Z,36.51
2018-07-31T10:19:23.017Z,36.80
2018-07-31T10:20:23.022Z,35.63
2018-07-31T10:21:22.996Z,35.91
2018-07-31T10:22:23.001Z,35.91
2018-07-31T10:23:22.975Z,35.80
2018-07-31T10:24:22.972Z,35.29
2018-07-31T10:25:22.972Z,34.70
2018-07-31T10:26:22.949Z,35.81
2018-07-31T10:27:22.937Z,35.63
2018-07-31T10:28:22.930Z,36.12
2018-07-31T10:29:22.922Z,35.83
2018-07-31T10:30:22.919Z,35.55
2018-07-31T10:31:22.913Z,35.36
2018-07-31T10:32:22.890Z,37.04
2018-07-31T10:33:22.881Z,36.55
2018-07-31T10:34:22.871Z,36.86
2018-07-31T10:35:22.859Z,36.37
2018-07-31T10:36:22.863Z,36.88
2018-07-31T10:37:22.859Z,36.57
2018-07-31T10:38:22.829Z,36.57
2018-07-31T10:39:22.823Z,35.28
2018-07-31T10:40:22.813Z,36.72
2018-07-31T10:41:22.819Z,35.53
2018-07-31T10:42:22.794Z,35.08
2018-07-31T10:43:22.782Z,36.86
2018-07-31T10:44:22.772Z,37.04
2018-07-31T10:45:22.763Z,35.46
2018-07-31T10:46:22.773Z,35.85
2018-07-31T10:47:22.746Z,34.68
2018-07-31T10:48:22.735Z,33.88
2018-07-31T10:49:22.724Z,34.84
2018-07-31T10:50:22.718Z,34.14
2018-07-31T10:51:22.723Z,33.46
2018-07-31T10:52:22.700Z,35.23
2018-07-31T10:53:22.691Z,33.96
2018-07-31T10:54:22.696Z,33.09
2018-07-31T10:55:22.674Z,33.17
2018-07-31T10:56:22.676Z,33.95
2018-07-31T10:57:22.667Z,33.75
2018-07-31T10:58:22.697Z,32.76
2018-07-31T10:59:22.635Z,32.45
2018-07-31T11:00:22.744Z,32.35
2018-07-31T11:01:22.622Z,31.85
2018-07-31T11:02:22.624Z,31.85
2018-07-31T11:03:22.602Z,31.18
2018-07-31T11:04:22.676Z,31.76
2018-07-31T11:05:22.583Z,31.08
2018-07-31T11:06:22.684Z,31.18
2018-07-31T11:07:22.580Z,31.57
2018-07-31T11:08:22.571Z,30.09
2018-07-31T11:09:22.543Z,30.50
2018-07-31T11:10:22.571Z,30.59
2018-07-31T11:11:22.524Z,31.10
2018-07-31T11:12:22.538Z,30.71
2018-07-31T11:13:22.576Z,31.21
2018-07-31T11:14:22.501Z,31.60
2018-07-31T11:15:22.490Z,32.28
2018-07-31T11:16:22.480Z,32.20
2018-07-31T11:17:22.472Z,31.30
2018-07-31T11:18:22.475Z,31.98
2018-07-31T11:19:22.466Z,32.26
2018-07-31T11:20:22.447Z,32.28
2018-07-31T11:21:22.521Z,31.38
2018-07-31T11:22:22.432Z,31.48
2018-07-31T11:23:22.417Z,31.29
2018-07-31T11:24:22.447Z,31.10
2018-07-31T11:25:22.401Z,31.29
2018-07-31T11:26:22.390Z,31.21
2018-07-31T11:27:22.393Z,32.29
2018-07-31T11:28:22.369Z,32.70
2018-07-31T11:29:22.361Z,33.28
2018-07-31T11:30:22.395Z,32.89
2018-07-31T11:31:22.344Z,32.99
2018-07-31T11:32:22.331Z,33.36
2018-07-31T11:33:22.327Z,32.86
2018-07-31T11:34:22.312Z,32.94
2018-07-31T11:35:22.308Z,32.34
2018-07-31T11:36:22.311Z,32.71
2018-07-31T11:37:22.287Z,32.31
2018-07-31T11:38:22.307Z,31.24
2018-07-31T11:39:22.266Z,31.73
2018-07-31T11:40:22.257Z,31.24
2018-07-31T11:41:22.266Z,31.34
2018-07-31T11:42:22.239Z,31.15
2018-07-31T11:43:22.228Z,31.53
2018-07-31T11:44:22.225Z,31.82
2018-07-31T11:45:22.213Z,30.07
2018-07-31T11:46:22.217Z,30.94
2018-07-31T11:47:22.198Z,32.21
2018-07-31T11:48:22.184Z,31.44
2018-07-31T11:49:22.172Z,31.24
2018-07-31T11:50:22.166Z,31.35
2018-07-31T11:51:22.192Z,31.84
2018-07-31T11:52:22.143Z,30.48
2018-07-31T11:53:22.133Z,30.19
2018-07-31T11:54:22.123Z,30.76
2018-07-31T11:55:22.116Z,31.35
2018-07-31T11:56:22.104Z,31.07
2018-07-31T11:57:22.111Z,30.09
2018-07-31T11:58:22.091Z,30.37
2018-07-31T11:59:22.074Z,30.00
2018-07-31T12:00:22.064Z,31.34
2018-07-31T12:01:22.063Z,30.27
2018-07-31T12:02:22.070Z,30.37
2018-07-31T12:03:22.037Z,30.68
2018-07-31T12:04:22.112Z,31.05
2018-07-31T12:05:22.022Z,30.37
2018-07-31T12:06:22.025Z,30.18
2018-07-31T12:07:22.002Z,30.18
2018-07-31T12:08:21.994Z,30.37
2018-07-31T12:09:22.005Z,30.37
2018-07-31T12:10:21.975Z,29.21
2018-07-31T12:11:21.968Z,29.71
2018-07-31T12:12:21.956Z,29.01
2018-07-31T12:13:22.084Z,28.41
2018-07-31T12:14:21.936Z,29.01
2018-07-31T12:15:21.944Z,29.30
2018-07-31T12:16:21.920Z,29.11
2018-07-31T12:17:21.910Z,29.22
2018-07-31T12:18:21.899Z,30.00
2018-07-31T12:19:21.892Z,30.38
2018-07-31T12:20:21.882Z,30.27
2018-07-31T12:21:21.886Z,30.19
2018-07-31T12:22:21.862Z,30.00
2018-07-31T12:23:21.851Z,30.37
2018-07-31T12:24:21.845Z,30.37
2018-07-31T12:25:21.854Z,30.94
2018-07-31T12:26:21.839Z,30.44
2018-07-31T12:27:21.818Z,29.27
2018-07-31T12:28:21.805Z,29.28
2018-07-31T12:29:21.798Z,28.80
2018-07-31T12:30:21.804Z,29.08
2018-07-31T12:31:21.790Z,29.00
2018-07-31T12:32:21.766Z,30.44
2018-07-31T12:33:21.758Z,29.27
2018-07-31T12:34:21.761Z,28.98
2018-07-31T12:35:21.752Z,28.77
2018-07-31T12:36:21.730Z,28.87
2018-07-31T12:37:21.738Z,28.97
2018-07-31T12:38:21.717Z,28.98
2018-07-31T12:39:21.705Z,28.91
2018-07-31T12:40:21.709Z,29.41
2018-07-31T12:41:21.685Z,29.52
2018-07-31T12:42:21.674Z,30.71
2018-07-31T12:43:21.667Z,31.32
2018-07-31T12:44:21.655Z,32.02
2018-07-31T12:45:21.666Z,31.82
2018-07-31T12:46:21.638Z,31.61
2018-07-31T12:47:21.629Z,31.21
2018-07-31T12:48:21.636Z,32.18
2018-07-31T12:49:21.608Z,31.97
2018-07-31T12:50:21.624Z,31.57
2018-07-31T12:51:21.596Z,31.16
2018-07-31T12:52:21.582Z,31.35